Loading...
Erik Nielsen Whitehorse International Airport

CYXY

Code AITA: YXY

Whitehorse, Yukon, Canada

-14.0°

Rosée: -16.0

Vitesse du vent

4 kt

Direction: 350° /

Altimètre

29.83 Hg

QNH : 1011

CYXY 022300Z 35004KT 40SM FEW015 BKN026 M14/M16 A2983 RMK SF1SC7 SF TR SLP160


Erik Nielsen Whitehorse International Airport

Élévation

677.0 mètres

Ville

Whitehorse

Localisation

Yukon Territory

Pays

Canada

Nouvelle recherche